createdAt,value
2018-10-03T00:02:12.352Z,90.50
2018-10-03T00:04:40.800Z,90.50
2018-10-03T00:07:09.322Z,90.50
2018-10-03T00:09:37.774Z,90.50
2018-10-03T00:12:06.241Z,90.40
2018-10-03T00:14:34.617Z,90.50
2018-10-03T00:17:03.003Z,90.50
2018-10-03T00:19:31.373Z,90.50
2018-10-03T00:21:59.886Z,90.70
2018-10-03T00:24:28.395Z,90.50
2018-10-03T00:26:56.870Z,90.50
2018-10-03T00:29:25.311Z,90.60
2018-10-03T00:31:53.674Z,90.60
2018-10-03T00:34:22.100Z,90.60
2018-10-03T00:36:50.568Z,90.60
2018-10-03T00:39:18.942Z,90.60
2018-10-03T00:41:47.465Z,90.60
2018-10-03T00:44:15.895Z,90.60
2018-10-03T00:46:44.253Z,90.60
2018-10-03T00:49:12.655Z,90.60
2018-10-03T00:51:41.103Z,90.60
2018-10-03T00:54:29.274Z,90.60
2018-10-03T00:56:57.888Z,90.60
2018-10-03T00:59:26.381Z,90.60
2018-10-03T01:01:54.838Z,90.60
2018-10-03T01:04:28.979Z,90.60
2018-10-03T01:06:57.452Z,90.70
2018-10-03T01:09:25.896Z,90.70
2018-10-03T01:11:54.436Z,90.70
2018-10-03T01:14:22.873Z,90.60
2018-10-03T01:16:51.275Z,90.60
2018-10-03T01:19:20.004Z,90.70
2018-10-03T01:21:48.382Z,90.60
2018-10-03T01:24:16.914Z,90.70
2018-10-03T01:26:46.465Z,90.70
2018-10-03T01:29:14.881Z,90.70
2018-10-03T01:31:43.314Z,90.60
2018-10-03T01:34:12.124Z,90.60
2018-10-03T01:36:40.477Z,90.60
2018-10-03T01:39:09.936Z,90.70
2018-10-03T01:41:38.960Z,90.70
2018-10-03T01:44:07.494Z,91.10
2018-10-03T01:46:35.856Z,90.70
2018-10-03T01:49:04.748Z,90.80
2018-10-03T01:51:33.100Z,90.80
2018-10-03T01:54:01.430Z,90.80
2018-10-03T01:56:30.101Z,90.80
2018-10-03T01:58:58.613Z,90.80
2018-10-03T02:01:27.028Z,90.70
2018-10-03T02:03:55.429Z,90.80
2018-10-03T02:06:23.983Z,90.80
2018-10-03T02:08:52.389Z,90.80
2018-10-03T02:11:20.799Z,90.80
2018-10-03T02:13:49.321Z,90.80
2018-10-03T02:16:17.788Z,90.80
2018-10-03T02:19:03.961Z,90.80
2018-10-03T02:21:32.316Z,90.80
2018-10-03T02:24:00.792Z,90.80
2018-10-03T02:26:29.256Z,90.80
2018-10-03T02:28:57.602Z,90.80
2018-10-03T02:31:26.966Z,90.80
2018-10-03T02:33:55.367Z,90.80
2018-10-03T02:36:23.754Z,90.80
2018-10-03T02:38:52.136Z,91.00
2018-10-03T02:41:20.526Z,90.80
2018-10-03T02:43:48.987Z,90.80
2018-10-03T02:46:17.380Z,90.80
2018-10-03T02:48:45.683Z,90.90
2018-10-03T02:51:14.029Z,90.80
2018-10-03T02:53:42.356Z,90.80
2018-10-03T02:56:11.027Z,90.70
2018-10-03T02:58:39.536Z,90.80
2018-10-03T03:01:08.053Z,90.80
2018-10-03T03:03:36.398Z,90.80
2018-10-03T03:06:10.421Z,91.00
2018-10-03T03:08:38.897Z,90.80
2018-10-03T03:11:07.289Z,90.80
2018-10-03T03:13:35.756Z,90.90
2018-10-03T03:16:04.316Z,90.90
2018-10-03T03:18:32.728Z,90.90
2018-10-03T03:21:01.067Z,90.90
2018-10-03T03:23:29.555Z,90.90
2018-10-03T03:25:58.019Z,90.90
2018-10-03T03:28:26.440Z,91.00
2018-10-03T03:30:54.953Z,90.90
2018-10-03T03:33:23.281Z,90.90
2018-10-03T03:35:51.670Z,90.90
2018-10-03T03:38:20.104Z,90.90
2018-10-03T03:40:48.433Z,91.00
2018-10-03T03:43:16.975Z,91.00
2018-10-03T03:45:45.446Z,91.00
2018-10-03T03:48:13.833Z,91.00
2018-10-03T03:50:42.142Z,91.00
2018-10-03T03:53:10.577Z,91.20
2018-10-03T03:55:39.058Z,91.10
2018-10-03T03:58:07.587Z,91.10
2018-10-03T04:00:45.700Z,91.20
2018-10-03T04:03:14.186Z,91.20
2018-10-03T04:05:42.633Z,91.10
2018-10-03T04:08:11.028Z,91.20
2018-10-03T04:10:39.452Z,91.10
2018-10-03T04:13:07.772Z,91.10
2018-10-03T04:15:36.299Z,91.10
2018-10-03T04:18:04.788Z,91.10
2018-10-03T04:20:33.293Z,91.10
2018-10-03T04:23:01.765Z,91.10
2018-10-03T04:25:30.138Z,91.20
2018-10-03T04:27:58.607Z,91.30
2018-10-03T04:30:27.213Z,91.00
2018-10-03T04:32:55.538Z,91.30
2018-10-03T04:35:23.762Z,91.20
2018-10-03T04:37:52.370Z,91.30
2018-10-03T04:40:20.626Z,91.20
2018-10-03T04:42:49.380Z,91.20
2018-10-03T05:02:21.453Z,91.20
2018-10-03T05:04:50.221Z,91.10
2018-10-03T05:07:18.627Z,91.20
2018-10-03T05:10:06.013Z,91.20
2018-10-03T05:12:34.546Z,91.30
2018-10-03T05:15:02.976Z,91.20
2018-10-03T05:20:31.872Z,91.30
2018-10-03T05:23:00.581Z,91.20
2018-10-03T05:25:29.130Z,91.20
2018-10-03T05:30:48.255Z,91.40
2018-10-03T05:33:22.848Z,91.30
2018-10-03T05:35:51.275Z,91.30
2018-10-03T05:38:30.205Z,91.30
2018-10-03T05:40:58.721Z,91.30
2018-10-03T05:43:27.296Z,91.30
2018-10-03T05:45:55.846Z,91.30
2018-10-03T05:48:24.503Z,91.30
2018-10-03T05:51:00.996Z,91.30
2018-10-03T05:53:32.870Z,91.40
2018-10-03T05:56:01.901Z,91.20
2018-10-03T05:58:30.278Z,91.30
2018-10-03T06:00:58.934Z,91.30
2018-10-03T06:03:44.839Z,91.40
2018-10-03T06:06:13.329Z,91.40
2018-10-03T06:08:41.678Z,91.40
2018-10-03T06:11:16.110Z,91.30
2018-10-03T06:13:44.377Z,91.30
2018-10-03T06:16:12.759Z,91.20
2018-10-03T06:18:41.275Z,91.20
2018-10-03T06:21:09.825Z,91.30
2018-10-03T06:26:42.627Z,91.30
2018-10-03T06:29:11.023Z,91.30
2018-10-03T06:31:39.627Z,91.30
2018-10-03T06:34:08.204Z,91.20
2018-10-03T06:36:36.767Z,91.20
2018-10-03T06:39:07.700Z,91.40
2018-10-03T06:41:41.044Z,91.20
2018-10-03T06:44:09.661Z,91.30
2018-10-03T06:46:38.160Z,91.30
2018-10-03T06:49:06.790Z,91.20
2018-10-03T06:51:35.328Z,91.20
2018-10-03T06:54:03.891Z,91.20
2018-10-03T06:56:32.330Z,91.30
2018-10-03T06:59:01.542Z,91.30
2018-10-03T07:01:29.882Z,91.40
2018-10-03T07:03:58.338Z,91.20
2018-10-03T07:06:26.832Z,91.10
2018-10-03T07:08:55.311Z,91.10
2018-10-03T07:11:23.720Z,91.20
2018-10-03T07:13:52.081Z,91.20
2018-10-03T07:16:20.799Z,91.20
2018-10-03T07:18:49.347Z,91.40
2018-10-03T07:21:29.873Z,91.30
2018-10-03T07:23:58.312Z,91.20
2018-10-03T07:26:27.335Z,91.20
2018-10-03T07:42:53.985Z,91.20
2018-10-03T07:45:23.552Z,91.00
2018-10-03T07:47:52.250Z,91.00
2018-10-03T07:50:20.953Z,91.00
2018-10-03T07:52:49.524Z,91.00
2018-10-03T07:55:18.152Z,91.00
2018-10-03T07:57:47.443Z,91.00
2018-10-03T08:00:35.833Z,91.00
2018-10-03T08:03:09.364Z,91.00
2018-10-03T08:05:38.485Z,90.90
2018-10-03T08:08:07.456Z,90.80
2018-10-03T08:10:36.661Z,90.70
2018-10-03T08:13:05.305Z,90.70
2018-10-03T08:15:33.629Z,90.70
2018-10-03T08:18:04.060Z,90.70
2018-10-03T08:20:32.717Z,90.70
2018-10-03T08:23:01.205Z,90.60
2018-10-03T08:25:33.230Z,90.50
2018-10-03T08:28:01.772Z,90.50
2018-10-03T08:30:35.135Z,90.50
2018-10-03T08:33:03.667Z,90.40
2018-10-03T08:35:32.185Z,90.30
2018-10-03T08:38:00.724Z,90.30
2018-10-03T08:40:29.305Z,90.20
2018-10-03T08:42:57.821Z,90.10
2018-10-03T08:45:26.218Z,90.20
2018-10-03T08:48:00.934Z,90.20
2018-10-03T08:50:29.669Z,90.10
2018-10-03T08:52:58.114Z,90.00
2018-10-03T08:55:34.149Z,90.00
2018-10-03T08:58:02.687Z,90.00
2018-10-03T09:00:31.333Z,90.00
2018-10-03T09:05:51.726Z,89.90
2018-10-03T09:08:20.885Z,89.70
2018-10-03T09:10:49.436Z,89.60
2018-10-03T09:13:17.934Z,89.50
2018-10-03T09:15:46.559Z,89.40
2018-10-03T09:18:34.669Z,89.10
2018-10-03T09:21:03.117Z,89.40
2018-10-03T09:23:31.491Z,89.40
2018-10-03T09:25:59.789Z,89.20
2018-10-03T09:28:28.108Z,89.20
2018-10-03T09:30:56.538Z,89.00
2018-10-03T09:36:36.234Z,88.60
2018-10-03T09:39:07.198Z,88.70
2018-10-03T09:41:35.697Z,88.00
2018-10-03T09:44:04.228Z,87.60
2018-10-03T09:46:32.834Z,87.80
2018-10-03T09:49:01.893Z,87.80
2018-10-03T09:51:31.120Z,88.00
2018-10-03T09:53:59.556Z,87.70
2018-10-03T09:56:28.739Z,87.30
2018-10-03T09:58:57.244Z,87.10
2018-10-03T10:01:31.770Z,86.70
2018-10-03T10:04:01.371Z,87.50
2018-10-03T10:06:30.947Z,87.70
2018-10-03T10:09:09.982Z,87.60
2018-10-03T10:11:38.871Z,87.50
2018-10-03T10:14:07.249Z,86.80
2018-10-03T10:16:35.667Z,86.40
2018-10-03T10:19:10.628Z,86.50
2018-10-03T10:21:43.831Z,86.50
2018-10-03T10:24:12.523Z,86.20
2018-10-03T10:26:43.510Z,86.10
2018-10-03T10:35:02.056Z,85.60
2018-10-03T10:37:30.746Z,85.50
2018-10-03T10:39:59.405Z,85.90
2018-10-03T10:42:27.809Z,86.20
2018-10-03T10:44:56.545Z,86.20
2018-10-03T10:47:32.888Z,86.50
2018-10-03T10:50:01.517Z,86.30
2018-10-03T10:52:34.681Z,86.20
2018-10-03T10:55:03.240Z,86.30
2018-10-03T10:57:31.755Z,86.00
2018-10-03T11:00:00.172Z,86.10
2018-10-03T11:02:29.952Z,85.50
2018-10-03T11:05:03.413Z,85.50
2018-10-03T11:07:32.174Z,85.40
2018-10-03T11:10:00.774Z,84.90
2018-10-03T11:12:29.396Z,84.60
2018-10-03T11:14:58.088Z,84.30
2018-10-03T11:17:26.709Z,84.30
2018-10-03T11:19:55.314Z,84.30
2018-10-03T11:22:24.181Z,84.20
2018-10-03T11:24:53.126Z,84.40
2018-10-03T11:27:23.671Z,83.90
2018-10-03T11:29:52.074Z,84.20
2018-10-03T11:32:20.590Z,84.50
2018-10-03T11:34:49.161Z,83.70
2018-10-03T11:37:18.617Z,83.60
2018-10-03T11:39:47.352Z,83.40
2018-10-03T11:42:16.072Z,83.50
2018-10-03T11:44:46.464Z,83.50
2018-10-03T11:47:14.844Z,83.70
2018-10-03T11:49:45.916Z,84.40
2018-10-03T11:52:14.435Z,83.10
2018-10-03T11:54:42.950Z,83.80
2018-10-03T11:57:11.517Z,83.10
2018-10-03T11:59:40.379Z,82.70
2018-10-03T12:02:09.180Z,82.30
2018-10-03T12:04:38.340Z,81.60
2018-10-03T12:07:06.784Z,81.00
2018-10-03T12:09:35.421Z,81.30
2018-10-03T12:12:04.495Z,81.40
2018-10-03T12:14:32.945Z,80.90
2018-10-03T12:17:02.906Z,81.50
2018-10-03T12:19:31.385Z,81.70
2018-10-03T12:21:59.799Z,82.10
2018-10-03T12:24:28.062Z,81.90
2018-10-03T12:26:56.556Z,80.40
2018-10-03T12:29:24.885Z,80.20
2018-10-03T12:31:53.291Z,80.80
2018-10-03T12:34:21.888Z,81.40
2018-10-03T12:36:50.389Z,81.30
2018-10-03T12:39:18.968Z,80.80
2018-10-03T12:42:02.780Z,80.40
2018-10-03T12:44:32.664Z,80.60
2018-10-03T12:47:00.934Z,80.70
2018-10-03T12:49:29.305Z,80.30
2018-10-03T12:52:03.413Z,80.50
2018-10-03T12:54:31.966Z,79.30
2018-10-03T12:57:00.589Z,79.50
2018-10-03T12:59:29.179Z,80.20
2018-10-03T13:01:57.486Z,79.80
2018-10-03T13:04:31.887Z,79.50
2018-10-03T13:07:00.375Z,79.60
2018-10-03T13:09:28.710Z,79.60
2018-10-03T13:11:57.998Z,79.90
2018-10-03T13:14:26.269Z,80.20
2018-10-03T13:16:54.673Z,80.20
2018-10-03T13:19:23.362Z,79.20
2018-10-03T13:21:52.157Z,78.60
2018-10-03T13:24:21.116Z,79.90
2018-10-03T13:26:49.775Z,80.40
2018-10-03T13:29:24.561Z,79.90
2018-10-03T13:31:53.099Z,79.80
2018-10-03T13:48:12.501Z,79.80
2018-10-03T13:50:41.150Z,79.20
2018-10-03T13:53:09.749Z,79.10
2018-10-03T13:55:47.997Z,78.90
2018-10-03T13:58:16.265Z,77.30
2018-10-03T14:00:44.595Z,78.30
2018-10-03T14:03:13.817Z,77.90
2018-10-03T14:11:43.277Z,77.20
2018-10-03T14:14:11.757Z,76.80
2018-10-03T14:16:41.115Z,77.80
2018-10-03T14:19:09.974Z,77.30
2018-10-03T14:21:38.477Z,77.50
2018-10-03T14:24:07.163Z,77.30
2018-10-03T14:26:35.448Z,77.90
2018-10-03T14:29:03.828Z,77.60
2018-10-03T14:31:32.330Z,77.20
2018-10-03T14:34:00.936Z,77.40
2018-10-03T14:36:29.236Z,77.10
2018-10-03T14:38:57.689Z,77.10
2018-10-03T14:41:25.962Z,77.60
2018-10-03T14:43:54.199Z,77.90
2018-10-03T14:46:22.489Z,77.80
2018-10-03T14:48:53.276Z,78.10
2018-10-03T14:51:21.684Z,78.00
2018-10-03T14:53:50.025Z,78.00
2018-10-03T14:56:18.466Z,78.30
2018-10-03T14:58:47.073Z,78.50
2018-10-03T15:01:15.458Z,78.60
2018-10-03T15:03:43.968Z,78.60
2018-10-03T15:06:12.575Z,78.80
2018-10-03T15:08:40.884Z,78.60
2018-10-03T15:11:09.462Z,78.50
2018-10-03T15:13:37.894Z,78.40
2018-10-03T15:16:07.100Z,77.80
2018-10-03T15:18:35.692Z,77.90
2018-10-03T15:21:04.581Z,77.80
2018-10-03T15:29:14.478Z,78.10
2018-10-03T15:31:42.771Z,77.90
2018-10-03T15:34:11.144Z,77.60
2018-10-03T15:36:41.275Z,78.10
2018-10-03T15:39:10.583Z,78.20
2018-10-03T15:41:40.558Z,77.90
2018-10-03T15:47:04.502Z,78.10
2018-10-03T15:49:46.001Z,77.90
2018-10-03T16:06:06.405Z,78.50
2018-10-03T16:25:56.561Z,79.90
2018-10-03T16:42:44.657Z,79.80
2018-10-03T16:45:15.918Z,79.70
2018-10-03T16:47:44.622Z,79.80
2018-10-03T16:50:16.710Z,79.80
2018-10-03T16:53:03.374Z,79.80
2018-10-03T16:55:36.356Z,79.80
2018-10-03T16:58:08.033Z,80.00
2018-10-03T17:00:48.571Z,79.90
2018-10-03T17:03:18.574Z,80.70
2018-10-03T17:05:48.820Z,80.20
2018-10-03T17:08:23.392Z,80.20
2018-10-03T17:10:56.477Z,80.20
2018-10-03T17:13:26.077Z,80.40
2018-10-03T17:15:55.509Z,80.20
2018-10-03T17:18:27.568Z,80.40
2018-10-03T17:21:04.665Z,80.40
2018-10-03T17:23:33.426Z,80.40
2018-10-03T17:26:01.745Z,80.60
2018-10-03T17:28:30.178Z,80.50
2018-10-03T17:31:08.325Z,80.60
2018-10-03T17:33:36.741Z,80.60
2018-10-03T17:36:05.093Z,80.70
2018-10-03T17:38:33.357Z,80.70
2018-10-03T17:41:01.685Z,80.80
2018-10-03T17:43:29.996Z,80.80
2018-10-03T17:46:20.120Z,80.90
2018-10-03T17:48:48.498Z,81.00
2018-10-03T17:51:16.765Z,80.90
2018-10-03T17:53:45.245Z,81.00
2018-10-03T17:56:13.632Z,80.90
2018-10-03T17:58:41.969Z,81.00
2018-10-03T18:01:10.296Z,81.00
2018-10-03T18:03:38.679Z,81.00
2018-10-03T18:06:11.997Z,81.10
2018-10-03T18:08:41.853Z,81.20
2018-10-03T18:11:10.084Z,81.30
2018-10-03T18:13:38.406Z,81.20
2018-10-03T18:16:06.742Z,81.20
2018-10-03T18:18:34.947Z,81.30
2018-10-03T18:21:03.352Z,81.30
2018-10-03T18:23:31.639Z,81.30
2018-10-03T18:25:59.977Z,81.30
2018-10-03T18:28:28.358Z,81.40
2018-10-03T18:30:56.633Z,81.40
2018-10-03T18:33:26.024Z,81.50
2018-10-03T18:35:55.170Z,81.50
2018-10-03T18:38:23.521Z,81.60
2018-10-03T18:40:53.012Z,81.60
2018-10-03T18:43:23.310Z,81.70
2018-10-03T18:45:51.560Z,81.80
2018-10-03T18:48:19.793Z,81.80
2018-10-03T18:50:48.539Z,81.80
2018-10-03T18:53:16.772Z,81.90
2018-10-03T18:55:45.036Z,81.90
2018-10-03T18:58:14.391Z,82.00
2018-10-03T19:00:42.720Z,82.00
2018-10-03T19:03:10.960Z,82.00
2018-10-03T19:05:39.223Z,82.00
2018-10-03T19:08:09.532Z,82.20
2018-10-03T19:10:37.858Z,82.20
2018-10-03T19:13:06.308Z,82.30
2018-10-03T19:15:34.559Z,83.50
2018-10-03T19:18:07.847Z,83.60
2018-10-03T19:20:39.294Z,83.70
2018-10-03T19:23:07.996Z,83.60
2018-10-03T19:25:36.199Z,83.60
2018-10-03T19:28:04.404Z,83.70
2018-10-03T19:30:32.626Z,83.70
2018-10-03T19:33:00.864Z,83.70
2018-10-03T19:35:29.277Z,83.80
2018-10-03T19:37:57.581Z,83.80
2018-10-03T19:40:25.889Z,83.90
2018-10-03T19:42:54.145Z,83.90
2018-10-03T19:45:22.361Z,83.90
2018-10-03T19:47:52.607Z,84.00
2018-10-03T19:50:20.808Z,84.00
2018-10-03T19:52:49.124Z,84.00
2018-10-03T19:55:17.364Z,84.00
2018-10-03T19:57:46.559Z,84.10
2018-10-03T20:00:14.788Z,84.10
2018-10-03T20:02:42.986Z,84.10
2018-10-03T20:05:11.232Z,84.20
2018-10-03T20:07:39.764Z,84.30
2018-10-03T20:10:08.085Z,84.20
2018-10-03T20:12:38.390Z,84.40
2018-10-03T20:15:06.727Z,84.30
2018-10-03T20:17:35.002Z,84.40
2018-10-03T20:20:03.264Z,84.40
2018-10-03T20:22:32.793Z,84.40
2018-10-03T20:25:01.353Z,84.40
2018-10-03T20:27:29.646Z,84.40
2018-10-03T20:29:57.799Z,84.40
2018-10-03T20:32:27.163Z,84.40
2018-10-03T20:34:55.397Z,84.40
2018-10-03T20:37:23.663Z,84.50
2018-10-03T20:39:52.061Z,84.50
2018-10-03T20:42:20.278Z,84.60
2018-10-03T20:44:48.692Z,84.60
2018-10-03T20:47:16.920Z,84.70
2018-10-03T20:49:45.152Z,84.60
2018-10-03T20:52:13.445Z,84.60
2018-10-03T20:54:41.713Z,84.70
2018-10-03T20:57:10.029Z,84.70
2018-10-03T20:59:38.269Z,84.60
2018-10-03T21:02:06.549Z,84.60
2018-10-03T21:04:34.869Z,84.60
2018-10-03T21:07:04.154Z,84.60
2018-10-03T21:09:32.707Z,84.60
2018-10-03T21:12:00.961Z,84.60
2018-10-03T21:14:29.180Z,84.60
2018-10-03T21:16:58.524Z,84.70
2018-10-03T21:19:26.765Z,84.80
2018-10-03T21:21:55.085Z,84.70
2018-10-03T21:24:23.309Z,84.80
2018-10-03T21:26:52.598Z,84.80
2018-10-03T21:29:21.565Z,84.70
2018-10-03T21:31:49.813Z,84.80
2018-10-03T21:34:18.025Z,84.90
2018-10-03T21:36:46.325Z,84.90
2018-10-03T21:39:14.548Z,84.90
2018-10-03T21:41:42.836Z,84.90
2018-10-03T21:44:11.157Z,85.00
2018-10-03T21:46:39.380Z,85.00
2018-10-03T21:49:07.698Z,84.90
2018-10-03T21:51:35.924Z,84.90
2018-10-03T21:54:04.184Z,84.90
2018-10-03T21:56:32.402Z,84.90
2018-10-03T21:59:00.690Z,84.90
2018-10-03T22:01:28.980Z,84.80
2018-10-03T22:03:57.320Z,84.90
2018-10-03T22:06:25.668Z,84.90
2018-10-03T22:08:53.975Z,84.90
2018-10-03T22:11:22.377Z,84.80
2018-10-03T22:13:50.691Z,84.80
2018-10-03T22:16:18.959Z,84.90
2018-10-03T22:18:47.250Z,85.00
2018-10-03T22:21:15.489Z,84.90
2018-10-03T22:23:43.752Z,85.00
2018-10-03T22:26:13.074Z,85.00
2018-10-03T22:28:41.393Z,85.10
2018-10-03T22:31:09.605Z,85.10
2018-10-03T22:33:37.830Z,85.10
2018-10-03T22:36:06.191Z,85.20
2018-10-03T22:38:34.542Z,85.20
2018-10-03T22:41:02.773Z,85.10
2018-10-03T22:43:31.024Z,85.10
2018-10-03T22:46:00.699Z,85.20
2018-10-03T22:48:29.097Z,85.20
2018-10-03T22:51:00.458Z,85.30
2018-10-03T22:53:28.687Z,85.20
2018-10-03T22:55:56.965Z,84.80
2018-10-03T23:01:15.955Z,85.00
2018-10-03T23:03:44.169Z,85.00
2018-10-03T23:06:12.417Z,85.00
2018-10-03T23:08:40.689Z,85.00
2018-10-03T23:11:08.926Z,85.00
2018-10-03T23:13:37.241Z,85.00
2018-10-03T23:16:05.569Z,85.10
2018-10-03T23:18:33.779Z,85.10
2018-10-03T23:21:01.983Z,85.00
2018-10-03T23:23:30.199Z,85.10
2018-10-03T23:25:58.402Z,85.10
2018-10-03T23:28:26.600Z,85.20
2018-10-03T23:30:55.021Z,85.20
2018-10-03T23:33:23.197Z,85.20
2018-10-03T23:35:51.561Z,85.20
2018-10-03T23:38:20.013Z,85.20
2018-10-03T23:40:48.230Z,85.20
2018-10-03T23:43:16.450Z,85.20
2018-10-03T23:45:44.729Z,85.20
2018-10-03T23:48:12.933Z,85.10
2018-10-03T23:50:41.142Z,85.00
2018-10-03T23:53:09.467Z,85.00
2018-10-03T23:55:37.695Z,85.10
2018-10-03T23:58:05.974Z,85.10
